sensor_id;sensor_type;location;lat;lon;timestamp;temperature;humidity
30973;DHT22;25423;45.624;13.790;2022-10-16T00:01:04;15.40;99.90
30973;DHT22;25423;45.624;13.790;2022-10-16T00:03:29;15.30;99.90
30973;DHT22;25423;45.624;13.790;2022-10-16T00:05:58;15.30;99.90
30973;DHT22;25423;45.624;13.790;2022-10-16T00:08:24;15.30;99.90
30973;DHT22;25423;45.624;13.790;2022-10-16T00:10:49;15.20;99.90
30973;DHT22;25423;45.624;13.790;2022-10-16T00:13:15;15.20;99.90
30973;DHT22;25423;45.624;13.790;2022-10-16T00:15:43;15.20;99.90
30973;DHT22;25423;45.624;13.790;2022-10-16T00:18:09;15.20;99.90
30973;DHT22;25423;45.624;13.790;2022-10-16T00:20:35;15.20;99.90
30973;DHT22;25423;45.624;13.790;2022-10-16T00:23:02;15.20;99.90
30973;DHT22;25423;45.624;13.790;2022-10-16T00:25:28;15.10;99.90
30973;DHT22;25423;45.624;13.790;2022-10-16T00:27:54;15.20;99.90
30973;DHT22;25423;45.624;13.790;2022-10-16T00:30:20;15.30;99.90
30973;DHT22;25423;45.624;13.790;2022-10-16T00:32:48;15.20;99.90
30973;DHT22;25423;45.624;13.790;2022-10-16T00:35:14;15.20;99.90
30973;DHT22;25423;45.624;13.790;2022-10-16T00:37:43;15.20;99.90
30973;DHT22;25423;45.624;13.790;2022-10-16T00:40:09;15.20;99.90
30973;DHT22;25423;45.624;13.790;2022-10-16T00:42:35;15.10;99.90
30973;DHT22;25423;45.624;13.790;2022-10-16T00:45:02;15.00;99.90
30973;DHT22;25423;45.624;13.790;2022-10-16T00:47:29;14.90;99.90
30973;DHT22;25423;45.624;13.790;2022-10-16T00:49:59;15.00;99.90
30973;DHT22;25423;45.624;13.790;2022-10-16T00:52:29;15.00;99.90
30973;DHT22;25423;45.624;13.790;2022-10-16T00:55:06;15.00;99.90
30973;DHT22;25423;45.624;13.790;2022-10-16T00:57:38;15.00;99.90
30973;DHT22;25423;45.624;13.790;2022-10-16T01:00:05;15.00;99.90
30973;DHT22;25423;45.624;13.790;2022-10-16T01:02:31;15.00;99.90
30973;DHT22;25423;45.624;13.790;2022-10-16T01:04:57;14.90;99.90
30973;DHT22;25423;45.624;13.790;2022-10-16T01:10:10;14.90;99.90
30973;DHT22;25423;45.624;13.790;2022-10-16T01:12:50;15.00;99.90
30973;DHT22;25423;45.624;13.790;2022-10-16T01:17:49;15.00;99.90
30973;DHT22;25423;45.624;13.790;2022-10-16T01:20:28;14.90;99.90
30973;DHT22;25423;45.624;13.790;2022-10-16T01:23:18;14.90;99.90
30973;DHT22;25423;45.624;13.790;2022-10-16T01:28:28;14.80;99.90
30973;DHT22;25423;45.624;13.790;2022-10-16T01:30:56;14.80;99.90
30973;DHT22;25423;45.624;13.790;2022-10-16T01:33:33;14.80;99.90
30973;DHT22;25423;45.624;13.790;2022-10-16T01:36:05;14.80;99.90
30973;DHT22;25423;45.624;13.790;2022-10-16T01:38:38;14.80;99.90
30973;DHT22;25423;45.624;13.790;2022-10-16T01:41:07;14.70;99.90
30973;DHT22;25423;45.624;13.790;2022-10-16T01:43:38;14.80;99.90
30973;DHT22;25423;45.624;13.790;2022-10-16T01:46:05;14.80;99.90
30973;DHT22;25423;45.624;13.790;2022-10-16T01:48:31;14.80;99.90
30973;DHT22;25423;45.624;13.790;2022-10-16T01:51:01;14.80;99.90
30973;DHT22;25423;45.624;13.790;2022-10-16T01:53:30;14.80;99.90
30973;DHT22;25423;45.624;13.790;2022-10-16T01:55:56;14.70;99.90
30973;DHT22;25423;45.624;13.790;2022-10-16T01:58:23;14.70;99.90
30973;DHT22;25423;45.624;13.790;2022-10-16T02:00:50;14.70;99.90
30973;DHT22;25423;45.624;13.790;2022-10-16T02:03:18;14.70;99.90
30973;DHT22;25423;45.624;13.790;2022-10-16T02:08:13;14.70;99.90
30973;DHT22;25423;45.624;13.790;2022-10-16T02:10:39;14.60;99.90
30973;DHT22;25423;45.624;13.790;2022-10-16T02:13:13;14.60;99.90
30973;DHT22;25423;45.624;13.790;2022-10-16T02:15:41;14.60;99.90
30973;DHT22;25423;45.624;13.790;2022-10-16T02:18:09;14.60;99.90
30973;DHT22;25423;45.624;13.790;2022-10-16T02:20:58;14.70;99.90
30973;DHT22;25423;45.624;13.790;2022-10-16T02:23:27;14.70;99.90
30973;DHT22;25423;45.624;13.790;2022-10-16T02:25:54;14.70;99.90
30973;DHT22;25423;45.624;13.790;2022-10-16T02:28:25;14.70;99.90
30973;DHT22;25423;45.624;13.790;2022-10-16T02:30:57;14.70;99.90
30973;DHT22;25423;45.624;13.790;2022-10-16T02:33:24;14.70;99.90
30973;DHT22;25423;45.624;13.790;2022-10-16T02:35:51;14.70;99.90
30973;DHT22;25423;45.624;13.790;2022-10-16T02:38:17;14.70;99.90
30973;DHT22;25423;45.624;13.790;2022-10-16T02:40:44;14.70;99.90
30973;DHT22;25423;45.624;13.790;2022-10-16T02:43:10;14.70;99.90
30973;DHT22;25423;45.624;13.790;2022-10-16T02:45:37;14.70;99.90
30973;DHT22;25423;45.624;13.790;2022-10-16T02:48:03;14.70;99.90
30973;DHT22;25423;45.624;13.790;2022-10-16T02:50:28;14.80;99.90
30973;DHT22;25423;45.624;13.790;2022-10-16T02:52:54;14.80;99.90
30973;DHT22;25423;45.624;13.790;2022-10-16T02:55:20;14.80;99.90
30973;DHT22;25423;45.624;13.790;2022-10-16T02:57:46;14.90;99.90
30973;DHT22;25423;45.624;13.790;2022-10-16T03:00:13;14.90;99.90
30973;DHT22;25423;45.624;13.790;2022-10-16T03:02:39;15.00;99.90
30973;DHT22;25423;45.624;13.790;2022-10-16T03:05:06;15.00;99.90
30973;DHT22;25423;45.624;13.790;2022-10-16T03:07:31;15.00;99.90
30973;DHT22;25423;45.624;13.790;2022-10-16T03:09:57;15.00;99.90
30973;DHT22;25423;45.624;13.790;2022-10-16T03:12:26;15.00;99.90
30973;DHT22;25423;45.624;13.790;2022-10-16T03:14:54;15.10;99.90
30973;DHT22;25423;45.624;13.790;2022-10-16T03:17:24;15.20;99.90
30973;DHT22;25423;45.624;13.790;2022-10-16T03:19:50;15.20;99.90
30973;DHT22;25423;45.624;13.790;2022-10-16T03:22:16;15.20;99.90
30973;DHT22;25423;45.624;13.790;2022-10-16T03:24:42;15.20;99.90
30973;DHT22;25423;45.624;13.790;2022-10-16T03:27:07;15.20;99.90
30973;DHT22;25423;45.624;13.790;2022-10-16T03:29:33;15.20;99.90
30973;DHT22;25423;45.624;13.790;2022-10-16T03:31:59;15.30;99.90
30973;DHT22;25423;45.624;13.790;2022-10-16T03:34:25;15.40;99.90
30973;DHT22;25423;45.624;13.790;2022-10-16T03:36:51;15.40;99.90
30973;DHT22;25423;45.624;13.790;2022-10-16T03:39:17;15.40;99.90
30973;DHT22;25423;45.624;13.790;2022-10-16T03:41:43;15.50;99.90
30973;DHT22;25423;45.624;13.790;2022-10-16T03:44:09;15.50;99.90
30973;DHT22;25423;45.624;13.790;2022-10-16T03:46:34;15.50;99.90
30973;DHT22;25423;45.624;13.790;2022-10-16T03:49:02;15.40;99.90
30973;DHT22;25423;45.624;13.790;2022-10-16T03:51:28;15.40;99.90
30973;DHT22;25423;45.624;13.790;2022-10-16T03:53:54;15.50;99.90
30973;DHT22;25423;45.624;13.790;2022-10-16T03:56:20;15.50;99.90
30973;DHT22;25423;45.624;13.790;2022-10-16T03:58:46;15.60;99.90
30973;DHT22;25423;45.624;13.790;2022-10-16T04:01:12;15.60;99.90
30973;DHT22;25423;45.624;13.790;2022-10-16T04:03:37;15.60;99.90
30973;DHT22;25423;45.624;13.790;2022-10-16T04:06:06;15.70;99.90
30973;DHT22;25423;45.624;13.790;2022-10-16T04:08:34;15.70;99.90
30973;DHT22;25423;45.624;13.790;2022-10-16T04:11:02;15.60;99.90
30973;DHT22;25423;45.624;13.790;2022-10-16T04:13:28;15.60;99.90
30973;DHT22;25423;45.624;13.790;2022-10-16T04:15:54;15.50;99.90
30973;DHT22;25423;45.624;13.790;2022-10-16T04:18:19;15.50;99.90
30973;DHT22;25423;45.624;13.790;2022-10-16T04:20:45;15.50;99.90
30973;DHT22;25423;45.624;13.790;2022-10-16T04:23:13;15.50;99.90
30973;DHT22;25423;45.624;13.790;2022-10-16T04:25:39;15.40;99.90
30973;DHT22;25423;45.624;13.790;2022-10-16T04:28:05;15.50;99.90
30973;DHT22;25423;45.624;13.790;2022-10-16T04:30:37;15.40;99.90
30973;DHT22;25423;45.624;13.790;2022-10-16T04:33:07;15.40;99.90
30973;DHT22;25423;45.624;13.790;2022-10-16T04:35:33;15.40;99.90
30973;DHT22;25423;45.624;13.790;2022-10-16T04:37:59;15.40;99.90
30973;DHT22;25423;45.624;13.790;2022-10-16T04:40:24;15.40;99.90
30973;DHT22;25423;45.624;13.790;2022-10-16T04:42:50;15.40;99.90
30973;DHT22;25423;45.624;13.790;2022-10-16T04:45:16;15.40;99.90
30973;DHT22;25423;45.624;13.790;2022-10-16T04:47:42;15.30;99.90
30973;DHT22;25423;45.624;13.790;2022-10-16T04:50:10;15.30;99.90
30973;DHT22;25423;45.624;13.790;2022-10-16T04:52:36;15.20;99.90
30973;DHT22;25423;45.624;13.790;2022-10-16T04:55:08;15.20;99.90
30973;DHT22;25423;45.624;13.790;2022-10-16T04:57:34;15.20;99.90
30973;DHT22;25423;45.624;13.790;2022-10-16T05:00:00;15.10;99.90
30973;DHT22;25423;45.624;13.790;2022-10-16T05:02:26;15.10;99.90
30973;DHT22;25423;45.624;13.790;2022-10-16T05:04:52;15.10;99.90
30973;DHT22;25423;45.624;13.790;2022-10-16T05:07:20;15.20;99.90
30973;DHT22;25423;45.624;13.790;2022-10-16T05:09:46;15.10;99.90
30973;DHT22;25423;45.624;13.790;2022-10-16T05:12:12;15.20;99.90
30973;DHT22;25423;45.624;13.790;2022-10-16T05:14:41;15.10;99.90
30973;DHT22;25423;45.624;13.790;2022-10-16T05:17:07;15.20;99.90
30973;DHT22;25423;45.624;13.790;2022-10-16T05:19:35;15.10;99.90
30973;DHT22;25423;45.624;13.790;2022-10-16T05:22:01;15.10;99.90
30973;DHT22;25423;45.624;13.790;2022-10-16T05:24:27;15.10;99.90
30973;DHT22;25423;45.624;13.790;2022-10-16T05:26:53;15.10;99.90
30973;DHT22;25423;45.624;13.790;2022-10-16T05:29:26;15.10;99.90
30973;DHT22;25423;45.624;13.790;2022-10-16T05:31:53;15.20;99.90
30973;DHT22;25423;45.624;13.790;2022-10-16T05:34:19;15.10;99.90
30973;DHT22;25423;45.624;13.790;2022-10-16T05:36:45;15.20;99.90
30973;DHT22;25423;45.624;13.790;2022-10-16T05:39:11;15.20;99.90
30973;DHT22;25423;45.624;13.790;2022-10-16T05:41:37;15.20;99.90
30973;DHT22;25423;45.624;13.790;2022-10-16T05:44:06;15.30;99.90
30973;DHT22;25423;45.624;13.790;2022-10-16T05:46:32;15.30;99.90
30973;DHT22;25423;45.624;13.790;2022-10-16T05:48:58;15.40;99.90
30973;DHT22;25423;45.624;13.790;2022-10-16T05:51:26;15.40;99.90
30973;DHT22;25423;45.624;13.790;2022-10-16T05:53:52;15.50;99.90
30973;DHT22;25423;45.624;13.790;2022-10-16T05:56:18;15.50;99.90
30973;DHT22;25423;45.624;13.790;2022-10-16T05:58:44;15.50;99.90
30973;DHT22;25423;45.624;13.790;2022-10-16T06:01:11;15.50;99.90
30973;DHT22;25423;45.624;13.790;2022-10-16T06:03:37;15.50;99.90
30973;DHT22;25423;45.624;13.790;2022-10-16T06:06:12;15.50;99.90
30973;DHT22;25423;45.624;13.790;2022-10-16T06:08:39;15.50;99.90
30973;DHT22;25423;45.624;13.790;2022-10-16T06:11:06;15.50;99.90
30973;DHT22;25423;45.624;13.790;2022-10-16T06:13:32;15.50;99.90
30973;DHT22;25423;45.624;13.790;2022-10-16T06:15:58;15.60;99.90
30973;DHT22;25423;45.624;13.790;2022-10-16T06:18:25;15.60;99.90
30973;DHT22;25423;45.624;13.790;2022-10-16T06:20:51;15.60;99.90
30973;DHT22;25423;45.624;13.790;2022-10-16T06:23:29;15.70;99.90
30973;DHT22;25423;45.624;13.790;2022-10-16T06:26:03;15.80;99.90
30973;DHT22;25423;45.624;13.790;2022-10-16T06:28:32;15.70;99.90
30973;DHT22;25423;45.624;13.790;2022-10-16T06:31:03;15.80;99.90
30973;DHT22;25423;45.624;13.790;2022-10-16T06:33:29;15.90;99.90
30973;DHT22;25423;45.624;13.790;2022-10-16T06:36:09;15.90;99.90
30973;DHT22;25423;45.624;13.790;2022-10-16T06:38:35;15.90;99.90
30973;DHT22;25423;45.624;13.790;2022-10-16T06:41:01;16.00;99.90
30973;DHT22;25423;45.624;13.790;2022-10-16T06:43:28;16.10;99.90
30973;DHT22;25423;45.624;13.790;2022-10-16T06:46:06;16.40;99.90
30973;DHT22;25423;45.624;13.790;2022-10-16T06:48:35;16.60;99.90
30973;DHT22;25423;45.624;13.790;2022-10-16T06:51:14;16.80;99.90
30973;DHT22;25423;45.624;13.790;2022-10-16T06:53:41;17.00;99.90
30973;DHT22;25423;45.624;13.790;2022-10-16T06:56:14;17.10;99.90
30973;DHT22;25423;45.624;13.790;2022-10-16T06:58:40;17.00;99.90
30973;DHT22;25423;45.624;13.790;2022-10-16T07:01:09;17.10;99.90
30973;DHT22;25423;45.624;13.790;2022-10-16T07:03:36;17.10;99.90
30973;DHT22;25423;45.624;13.790;2022-10-16T07:06:07;17.10;99.90
30973;DHT22;25423;45.624;13.790;2022-10-16T07:08:36;17.10;99.90
30973;DHT22;25423;45.624;13.790;2022-10-16T07:11:03;17.10;99.90
30973;DHT22;25423;45.624;13.790;2022-10-16T07:13:32;17.10;99.90
30973;DHT22;25423;45.624;13.790;2022-10-16T07:15:58;17.20;99.90
30973;DHT22;25423;45.624;13.790;2022-10-16T07:18:29;17.30;99.90
30973;DHT22;25423;45.624;13.790;2022-10-16T07:21:16;17.30;99.90
30973;DHT22;25423;45.624;13.790;2022-10-16T07:23:46;17.40;99.90
30973;DHT22;25423;45.624;13.790;2022-10-16T07:26:15;17.40;99.90
30973;DHT22;25423;45.624;13.790;2022-10-16T07:28:42;17.60;99.90
30973;DHT22;25423;45.624;13.790;2022-10-16T07:31:11;17.70;99.90
30973;DHT22;25423;45.624;13.790;2022-10-16T07:33:39;17.80;99.90
30973;DHT22;25423;45.624;13.790;2022-10-16T07:36:05;18.00;99.90
30973;DHT22;25423;45.624;13.790;2022-10-16T07:38:31;18.00;99.90
30973;DHT22;25423;45.624;13.790;2022-10-16T07:40:57;18.00;99.90
30973;DHT22;25423;45.624;13.790;2022-10-16T07:43:24;18.00;99.90
30973;DHT22;25423;45.624;13.790;2022-10-16T07:45:50;18.10;99.90
30973;DHT22;25423;45.624;13.790;2022-10-16T07:48:19;18.30;99.90
30973;DHT22;25423;45.624;13.790;2022-10-16T07:50:45;18.40;99.90
30973;DHT22;25423;45.624;13.790;2022-10-16T07:53:11;18.50;99.90
30973;DHT22;25423;45.624;13.790;2022-10-16T07:55:37;18.60;99.90
30973;DHT22;25423;45.624;13.790;2022-10-16T07:58:08;18.70;99.90
30973;DHT22;25423;45.624;13.790;2022-10-16T08:00:39;18.70;99.90
30973;DHT22;25423;45.624;13.790;2022-10-16T08:03:30;18.90;99.90
30973;DHT22;25423;45.624;13.790;2022-10-16T08:05:56;18.80;99.90
30973;DHT22;25423;45.624;13.790;2022-10-16T08:08:25;18.90;99.90
30973;DHT22;25423;45.624;13.790;2022-10-16T08:10:54;18.90;99.90
30973;DHT22;25423;45.624;13.790;2022-10-16T08:13:25;18.80;99.90
30973;DHT22;25423;45.624;13.790;2022-10-16T08:15:57;18.80;99.90
30973;DHT22;25423;45.624;13.790;2022-10-16T08:18:23;18.90;99.90
30973;DHT22;25423;45.624;13.790;2022-10-16T08:20:54;19.00;99.90
30973;DHT22;25423;45.624;13.790;2022-10-16T08:23:20;19.10;99.90
30973;DHT22;25423;45.624;13.790;2022-10-16T08:25:51;19.30;99.90
30973;DHT22;25423;45.624;13.790;2022-10-16T08:28:18;19.30;99.90
30973;DHT22;25423;45.624;13.790;2022-10-16T08:30:44;19.30;99.90
30973;DHT22;25423;45.624;13.790;2022-10-16T08:33:10;19.50;99.90
30973;DHT22;25423;45.624;13.790;2022-10-16T08:35:49;19.60;99.90
30973;DHT22;25423;45.624;13.790;2022-10-16T08:38:15;19.80;99.90
30973;DHT22;25423;45.624;13.790;2022-10-16T08:40:41;19.90;99.90
30973;DHT22;25423;45.624;13.790;2022-10-16T08:51:07;20.40;99.90
30973;DHT22;25423;45.624;13.790;2022-10-16T08:53:36;20.40;99.90
30973;DHT22;25423;45.624;13.790;2022-10-16T08:56:03;20.50;99.90
30973;DHT22;25423;45.624;13.790;2022-10-16T08:58:29;20.50;99.90
30973;DHT22;25423;45.624;13.790;2022-10-16T09:00:56;20.60;99.90
30973;DHT22;25423;45.624;13.790;2022-10-16T09:03:24;20.70;99.90
30973;DHT22;25423;45.624;13.790;2022-10-16T09:06:05;20.70;99.90
30973;DHT22;25423;45.624;13.790;2022-10-16T09:13:57;21.30;99.90
30973;DHT22;25423;45.624;13.790;2022-10-16T09:16:28;21.50;99.90
30973;DHT22;25423;45.624;13.790;2022-10-16T09:18:58;21.80;99.90
30973;DHT22;25423;45.624;13.790;2022-10-16T09:21:27;22.10;99.90
30973;DHT22;25423;45.624;13.790;2022-10-16T09:23:56;22.20;99.90
30973;DHT22;25423;45.624;13.790;2022-10-16T09:26:23;22.30;99.90
30973;DHT22;25423;45.624;13.790;2022-10-16T09:28:48;22.30;99.90
30973;DHT22;25423;45.624;13.790;2022-10-16T09:31:18;22.30;99.90
30973;DHT22;25423;45.624;13.790;2022-10-16T09:33:51;22.30;99.90
30973;DHT22;25423;45.624;13.790;2022-10-16T09:36:21;22.10;99.90
30973;DHT22;25423;45.624;13.790;2022-10-16T09:41:37;22.00;99.90
30973;DHT22;25423;45.624;13.790;2022-10-16T09:47:03;21.70;99.90
30973;DHT22;25423;45.624;13.790;2022-10-16T09:49:29;21.50;99.90
30973;DHT22;25423;45.624;13.790;2022-10-16T09:54:51;21.30;99.90
30973;DHT22;25423;45.624;13.790;2022-10-16T09:57:16;21.40;99.90
30973;DHT22;25423;45.624;13.790;2022-10-16T09:59:49;21.40;99.90
30973;DHT22;25423;45.624;13.790;2022-10-16T10:02:16;21.30;99.90
30973;DHT22;25423;45.624;13.790;2022-10-16T10:04:51;21.10;99.90
30973;DHT22;25423;45.624;13.790;2022-10-16T10:07:36;20.90;99.90
30973;DHT22;25423;45.624;13.790;2022-10-16T10:10:18;20.90;99.90
30973;DHT22;25423;45.624;13.790;2022-10-16T10:12:45;20.90;99.90
30973;DHT22;25423;45.624;13.790;2022-10-16T10:15:11;20.90;99.90
30973;DHT22;25423;45.624;13.790;2022-10-16T10:17:53;20.90;99.90
30973;DHT22;25423;45.624;13.790;2022-10-16T10:20:30;21.00;99.90
30973;DHT22;25423;45.624;13.790;2022-10-16T10:22:58;21.10;99.90
30973;DHT22;25423;45.624;13.790;2022-10-16T10:27:58;21.10;99.90
30973;DHT22;25423;45.624;13.790;2022-10-16T10:30:47;21.20;99.90
30973;DHT22;25423;45.624;13.790;2022-10-16T10:35:48;21.50;99.90
30973;DHT22;25423;45.624;13.790;2022-10-16T10:38:21;21.50;99.90
30973;DHT22;25423;45.624;13.790;2022-10-16T10:40:53;21.60;99.90
30973;DHT22;25423;45.624;13.790;2022-10-16T10:46:02;21.80;99.90
30973;DHT22;25423;45.624;13.790;2022-10-16T10:48:34;21.80;99.90
30973;DHT22;25423;45.624;13.790;2022-10-16T10:51:08;22.00;99.90
30973;DHT22;25423;45.624;13.790;2022-10-16T11:01:09;21.90;99.90
30973;DHT22;25423;45.624;13.790;2022-10-16T11:03:42;22.00;99.90
30973;DHT22;25423;45.624;13.790;2022-10-16T11:06:18;22.10;99.90
30973;DHT22;25423;45.624;13.790;2022-10-16T11:08:59;22.10;99.90
30973;DHT22;25423;45.624;13.790;2022-10-16T11:13:55;21.90;99.90
30973;DHT22;25423;45.624;13.790;2022-10-16T11:16:27;21.80;99.90
30973;DHT22;25423;45.624;13.790;2022-10-16T11:18:58;21.90;99.90
30973;DHT22;25423;45.624;13.790;2022-10-16T11:21:29;21.80;99.90
30973;DHT22;25423;45.624;13.790;2022-10-16T11:24:00;21.80;99.90
30973;DHT22;25423;45.624;13.790;2022-10-16T11:26:35;21.80;99.90
30973;DHT22;25423;45.624;13.790;2022-10-16T11:29:02;21.80;99.90
30973;DHT22;25423;45.624;13.790;2022-10-16T11:31:32;22.00;99.90
30973;DHT22;25423;45.624;13.790;2022-10-16T11:36:27;21.70;99.90
30973;DHT22;25423;45.624;13.790;2022-10-16T11:41:41;21.60;99.90
30973;DHT22;25423;45.624;13.790;2022-10-16T11:47:00;21.60;99.90
30973;DHT22;25423;45.624;13.790;2022-10-16T11:49:26;21.70;99.90
30973;DHT22;25423;45.624;13.790;2022-10-16T11:51:59;21.70;99.90
30973;DHT22;25423;45.624;13.790;2022-10-16T11:54:37;21.70;99.90
30973;DHT22;25423;45.624;13.790;2022-10-16T11:57:14;21.70;99.90
30973;DHT22;25423;45.624;13.790;2022-10-16T11:59:48;21.80;99.90
30973;DHT22;25423;45.624;13.790;2022-10-16T12:02:33;21.80;99.90
30973;DHT22;25423;45.624;13.790;2022-10-16T12:07:48;21.70;99.90
30973;DHT22;25423;45.624;13.790;2022-10-16T12:10:23;21.80;99.90
30973;DHT22;25423;45.624;13.790;2022-10-16T12:12:49;21.80;99.90
30973;DHT22;25423;45.624;13.790;2022-10-16T12:17:41;22.00;99.90
30973;DHT22;25423;45.624;13.790;2022-10-16T12:22:42;21.90;99.90
30973;DHT22;25423;45.624;13.790;2022-10-16T12:27:57;22.00;99.90
30973;DHT22;25423;45.624;13.790;2022-10-16T12:30:25;22.00;99.90
30973;DHT22;25423;45.624;13.790;2022-10-16T12:32:57;21.90;99.90
30973;DHT22;25423;45.624;13.790;2022-10-16T12:35:25;21.90;99.90
30973;DHT22;25423;45.624;13.790;2022-10-16T12:37:51;21.80;99.90
30973;DHT22;25423;45.624;13.790;2022-10-16T12:40:25;21.80;99.90
30973;DHT22;25423;45.624;13.790;2022-10-16T12:42:55;21.80;99.90
30973;DHT22;25423;45.624;13.790;2022-10-16T12:45:25;21.80;99.90
30973;DHT22;25423;45.624;13.790;2022-10-16T12:47:52;21.60;99.90
30973;DHT22;25423;45.624;13.790;2022-10-16T12:50:26;21.50;99.90
30973;DHT22;25423;45.624;13.790;2022-10-16T12:53:00;21.60;99.90
30973;DHT22;25423;45.624;13.790;2022-10-16T12:55:26;21.50;99.90
30973;DHT22;25423;45.624;13.790;2022-10-16T12:58:04;21.30;99.90
30973;DHT22;25423;45.624;13.790;2022-10-16T13:08:49;21.30;99.90
30973;DHT22;25423;45.624;13.790;2022-10-16T13:13:47;21.40;99.90
30973;DHT22;25423;45.624;13.790;2022-10-16T13:16:59;21.30;99.90
30973;DHT22;25423;45.624;13.790;2022-10-16T13:29:19;21.40;99.90
30973;DHT22;25423;45.624;13.790;2022-10-16T13:31:45;21.40;99.90
30973;DHT22;25423;45.624;13.790;2022-10-16T13:34:17;21.30;99.90
30973;DHT22;25423;45.624;13.790;2022-10-16T13:36:48;21.30;99.90
30973;DHT22;25423;45.624;13.790;2022-10-16T13:39:27;21.30;99.90
30973;DHT22;25423;45.624;13.790;2022-10-16T13:44:25;21.20;99.90
30973;DHT22;25423;45.624;13.790;2022-10-16T13:47:01;21.20;99.90
30973;DHT22;25423;45.624;13.790;2022-10-16T13:49:27;21.20;99.90
30973;DHT22;25423;45.624;13.790;2022-10-16T13:51:57;21.20;99.90
30973;DHT22;25423;45.624;13.790;2022-10-16T13:54:26;21.10;99.90
30973;DHT22;25423;45.624;13.790;2022-10-16T13:56:54;21.20;99.90
30973;DHT22;25423;45.624;13.790;2022-10-16T13:59:24;21.20;99.90
30973;DHT22;25423;45.624;13.790;2022-10-16T14:01:50;21.20;99.90
30973;DHT22;25423;45.624;13.790;2022-10-16T14:04:17;21.10;99.90
30973;DHT22;25423;45.624;13.790;2022-10-16T14:06:44;21.10;99.90
30973;DHT22;25423;45.624;13.790;2022-10-16T14:09:15;21.20;99.90
30973;DHT22;25423;45.624;13.790;2022-10-16T14:11:45;21.20;99.90
30973;DHT22;25423;45.624;13.790;2022-10-16T14:14:13;21.10;99.90
30973;DHT22;25423;45.624;13.790;2022-10-16T14:16:40;21.00;99.90
30973;DHT22;25423;45.624;13.790;2022-10-16T14:19:45;21.00;99.90
30973;DHT22;25423;45.624;13.790;2022-10-16T14:22:00;21.10;99.90
30973;DHT22;25423;45.624;13.790;2022-10-16T14:26:56;21.10;99.90
30973;DHT22;25423;45.624;13.790;2022-10-16T14:29:22;21.10;99.90
30973;DHT22;25423;45.624;13.790;2022-10-16T14:31:57;21.10;99.90
30973;DHT22;25423;45.624;13.790;2022-10-16T14:34:28;21.10;99.90
30973;DHT22;25423;45.624;13.790;2022-10-16T14:36:56;21.10;99.90
30973;DHT22;25423;45.624;13.790;2022-10-16T14:39:22;21.10;99.90
30973;DHT22;25423;45.624;13.790;2022-10-16T14:41:49;21.20;99.90
30973;DHT22;25423;45.624;13.790;2022-10-16T14:44:16;21.30;99.90
30973;DHT22;25423;45.624;13.790;2022-10-16T14:46:42;21.10;99.90
30973;DHT22;25423;45.624;13.790;2022-10-16T14:51:38;21.10;99.90
30973;DHT22;25423;45.624;13.790;2022-10-16T14:54:07;21.00;99.90
30973;DHT22;25423;45.624;13.790;2022-10-16T14:56:42;21.00;99.90
30973;DHT22;25423;45.624;13.790;2022-10-16T14:59:11;21.10;99.90
30973;DHT22;25423;45.624;13.790;2022-10-16T15:01:38;21.10;99.90
30973;DHT22;25423;45.624;13.790;2022-10-16T15:04:04;21.10;99.90
30973;DHT22;25423;45.624;13.790;2022-10-16T15:06:30;21.10;99.90
30973;DHT22;25423;45.624;13.790;2022-10-16T15:08:55;21.10;99.90
30973;DHT22;25423;45.624;13.790;2022-10-16T15:11:21;21.00;99.90
30973;DHT22;25423;45.624;13.790;2022-10-16T15:13:47;21.00;99.90
30973;DHT22;25423;45.624;13.790;2022-10-16T15:16:13;21.00;99.90
30973;DHT22;25423;45.624;13.790;2022-10-16T15:18:39;20.90;99.90
30973;DHT22;25423;45.624;13.790;2022-10-16T15:21:05;20.90;99.90
30973;DHT22;25423;45.624;13.790;2022-10-16T15:23:32;20.70;99.90
30973;DHT22;25423;45.624;13.790;2022-10-16T15:25:58;20.60;99.90
30973;DHT22;25423;45.624;13.790;2022-10-16T15:28:24;20.50;99.90
30973;DHT22;25423;45.624;13.790;2022-10-16T15:30:51;20.50;99.90
30973;DHT22;25423;45.624;13.790;2022-10-16T15:33:18;20.40;99.90
30973;DHT22;25423;45.624;13.790;2022-10-16T15:35:48;20.40;99.90
30973;DHT22;25423;45.624;13.790;2022-10-16T15:38:15;20.30;99.90
30973;DHT22;25423;45.624;13.790;2022-10-16T15:40:40;20.30;99.90
30973;DHT22;25423;45.624;13.790;2022-10-16T15:43:07;20.20;99.90
30973;DHT22;25423;45.624;13.790;2022-10-16T15:45:33;20.10;99.90
30973;DHT22;25423;45.624;13.790;2022-10-16T15:47:59;20.10;99.90
30973;DHT22;25423;45.624;13.790;2022-10-16T15:50:24;20.10;99.90
30973;DHT22;25423;45.624;13.790;2022-10-16T15:52:50;20.00;99.90
30973;DHT22;25423;45.624;13.790;2022-10-16T15:55:16;19.90;99.90
30973;DHT22;25423;45.624;13.790;2022-10-16T15:57:44;19.80;99.90
30973;DHT22;25423;45.624;13.790;2022-10-16T16:00:11;19.70;99.90
30973;DHT22;25423;45.624;13.790;2022-10-16T16:02:37;19.60;99.90
30973;DHT22;25423;45.624;13.790;2022-10-16T16:05:03;19.60;99.90
30973;DHT22;25423;45.624;13.790;2022-10-16T16:07:32;19.50;99.90
30973;DHT22;25423;45.624;13.790;2022-10-16T16:09:57;19.50;99.90
30973;DHT22;25423;45.624;13.790;2022-10-16T16:12:23;19.40;99.90
30973;DHT22;25423;45.624;13.790;2022-10-16T16:14:49;19.30;99.90
30973;DHT22;25423;45.624;13.790;2022-10-16T16:17:14;19.30;99.90
30973;DHT22;25423;45.624;13.790;2022-10-16T16:19:40;19.20;99.90
30973;DHT22;25423;45.624;13.790;2022-10-16T16:22:06;19.20;99.90
30973;DHT22;25423;45.624;13.790;2022-10-16T16:24:31;19.10;99.90
30973;DHT22;25423;45.624;13.790;2022-10-16T16:26:57;19.00;99.90
30973;DHT22;25423;45.624;13.790;2022-10-16T16:29:22;19.00;99.90
30973;DHT22;25423;45.624;13.790;2022-10-16T16:31:48;18.90;99.90
30973;DHT22;25423;45.624;13.790;2022-10-16T16:34:14;19.00;99.90
30973;DHT22;25423;45.624;13.790;2022-10-16T16:36:40;18.80;99.90
30973;DHT22;25423;45.624;13.790;2022-10-16T16:39:06;18.70;99.90
30973;DHT22;25423;45.624;13.790;2022-10-16T16:41:32;18.70;99.90
30973;DHT22;25423;45.624;13.790;2022-10-16T16:44:02;18.60;99.90
30973;DHT22;25423;45.624;13.790;2022-10-16T16:46:28;18.60;99.90
30973;DHT22;25423;45.624;13.790;2022-10-16T16:48:54;18.50;99.90
30973;DHT22;25423;45.624;13.790;2022-10-16T16:51:20;18.40;99.90
30973;DHT22;25423;45.624;13.790;2022-10-16T16:53:47;18.40;99.90
30973;DHT22;25423;45.624;13.790;2022-10-16T16:56:13;18.30;99.90
30973;DHT22;25423;45.624;13.790;2022-10-16T16:58:39;18.30;99.90
30973;DHT22;25423;45.624;13.790;2022-10-16T17:01:05;18.20;99.90